sensor_id;sensor_type;location;lat;lon;timestamp;temperature;humidity
51878;SHT31;37911;51.526;11.536;2023-02-18T00:00:13;8.81;65.74
51878;SHT31;37911;51.526;11.536;2023-02-18T00:03:17;8.81;65.49
51878;SHT31;37911;51.526;11.536;2023-02-18T00:06:22;8.71;65.78
51878;SHT31;37911;51.526;11.536;2023-02-18T00:09:26;8.60;66.06
51878;SHT31;37911;51.526;11.536;2023-02-18T00:12:30;8.53;66.45
51878;SHT31;37911;51.526;11.536;2023-02-18T00:15:37;8.44;66.91
51878;SHT31;37911;51.526;11.536;2023-02-18T00:18:40;8.28;67.48
51878;SHT31;37911;51.526;11.536;2023-02-18T00:21:45;8.23;67.60
51878;SHT31;37911;51.526;11.536;2023-02-18T00:24:49;8.14;67.93
51878;SHT31;37911;51.526;11.536;2023-02-18T00:27:52;8.12;67.86
51878;SHT31;37911;51.526;11.536;2023-02-18T00:30:58;8.06;68.19
51878;SHT31;37911;51.526;11.536;2023-02-18T00:34:04;7.95;68.62
51878;SHT31;37911;51.526;11.536;2023-02-18T00:37:08;7.96;68.67
51878;SHT31;37911;51.526;11.536;2023-02-18T00:40:12;7.95;68.79
51878;SHT31;37911;51.526;11.536;2023-02-18T00:43:15;7.89;68.98
51878;SHT31;37911;51.526;11.536;2023-02-18T00:46:22;7.82;69.41
51878;SHT31;37911;51.526;11.536;2023-02-18T00:49:27;7.86;69.42
51878;SHT31;37911;51.526;11.536;2023-02-18T00:52:31;7.85;69.72
51878;SHT31;37911;51.526;11.536;2023-02-18T00:55:38;7.88;69.52
51878;SHT31;37911;51.526;11.536;2023-02-18T00:58:42;7.86;69.46
51878;SHT31;37911;51.526;11.536;2023-02-18T01:01:48;7.89;69.50
51878;SHT31;37911;51.526;11.536;2023-02-18T01:04:52;7.96;69.24
51878;SHT31;37911;51.526;11.536;2023-02-18T01:07:55;7.91;69.70
51878;SHT31;37911;51.526;11.536;2023-02-18T01:10:59;7.88;69.44
51878;SHT31;37911;51.526;11.536;2023-02-18T01:14:03;7.93;68.82
51878;SHT31;37911;51.526;11.536;2023-02-18T01:17:09;7.89;68.74
51878;SHT31;37911;51.526;11.536;2023-02-18T01:20:14;7.92;68.70
51878;SHT31;37911;51.526;11.536;2023-02-18T01:23:18;7.86;68.45
51878;SHT31;37911;51.526;11.536;2023-02-18T01:26:22;7.88;68.67
51878;SHT31;37911;51.526;11.536;2023-02-18T01:29:26;7.86;68.78
51878;SHT31;37911;51.526;11.536;2023-02-18T01:32:33;7.85;69.07
51878;SHT31;37911;51.526;11.536;2023-02-18T01:35:37;7.88;69.07
51878;SHT31;37911;51.526;11.536;2023-02-18T01:38:41;7.88;69.50
51878;SHT31;37911;51.526;11.536;2023-02-18T01:41:44;7.92;69.75
51878;SHT31;37911;51.526;11.536;2023-02-18T01:44:49;7.86;70.04
51878;SHT31;37911;51.526;11.536;2023-02-18T01:47:55;7.88;70.43
51878;SHT31;37911;51.526;11.536;2023-02-18T01:51:02;7.85;70.87
51878;SHT31;37911;51.526;11.536;2023-02-18T01:54:08;7.88;71.23
51878;SHT31;37911;51.526;11.536;2023-02-18T01:57:14;7.89;71.43
51878;SHT31;37911;51.526;11.536;2023-02-18T02:00:20;7.88;71.44
51878;SHT31;37911;51.526;11.536;2023-02-18T02:03:26;7.88;71.71
51878;SHT31;37911;51.526;11.536;2023-02-18T02:06:30;7.88;71.77
51878;SHT31;37911;51.526;11.536;2023-02-18T02:09:34;7.82;71.68
51878;SHT31;37911;51.526;11.536;2023-02-18T02:12:47;7.85;71.55
51878;SHT31;37911;51.526;11.536;2023-02-18T02:15:59;7.83;71.80
51878;SHT31;37911;51.526;11.536;2023-02-18T02:19:22;7.81;71.80
51878;SHT31;37911;51.526;11.536;2023-02-18T02:26:38;7.83;72.07
51878;SHT31;37911;51.526;11.536;2023-02-18T02:30:07;7.82;72.10
51878;SHT31;37911;51.526;11.536;2023-02-18T02:37:13;7.86;71.95
51878;SHT31;37911;51.526;11.536;2023-02-18T02:40:22;7.86;72.09
51878;SHT31;37911;51.526;11.536;2023-02-18T02:43:32;7.86;71.82
51878;SHT31;37911;51.526;11.536;2023-02-18T02:46:39;7.88;71.88
51878;SHT31;37911;51.526;11.536;2023-02-18T02:49:49;7.91;71.15
51878;SHT31;37911;51.526;11.536;2023-02-18T02:53:01;7.82;71.36
51878;SHT31;37911;51.526;11.536;2023-02-18T02:56:12;7.85;71.17
51878;SHT31;37911;51.526;11.536;2023-02-18T02:59:19;7.83;71.22
51878;SHT31;37911;51.526;11.536;2023-02-18T03:02:36;7.79;71.57
51878;SHT31;37911;51.526;11.536;2023-02-18T03:05:54;7.79;71.60
51878;SHT31;37911;51.526;11.536;2023-02-18T03:09:09;7.78;71.76
51878;SHT31;37911;51.526;11.536;2023-02-18T03:12:24;7.79;71.76
51878;SHT31;37911;51.526;11.536;2023-02-18T03:15:37;7.81;71.99
51878;SHT31;37911;51.526;11.536;2023-02-18T03:18:45;7.78;72.31
51878;SHT31;37911;51.526;11.536;2023-02-18T03:21:54;7.81;72.38
51878;SHT31;37911;51.526;11.536;2023-02-18T03:25:02;7.83;72.47
51878;SHT31;37911;51.526;11.536;2023-02-18T03:28:09;7.83;72.60
51878;SHT31;37911;51.526;11.536;2023-02-18T03:31:17;7.82;72.67
51878;SHT31;37911;51.526;11.536;2023-02-18T03:34:27;7.82;72.92
51878;SHT31;37911;51.526;11.536;2023-02-18T03:37:36;7.79;72.95
51878;SHT31;37911;51.526;11.536;2023-02-18T03:40:43;7.83;73.19
51878;SHT31;37911;51.526;11.536;2023-02-18T03:43:50;7.86;73.33
51878;SHT31;37911;51.526;11.536;2023-02-18T03:46:54;7.88;73.42
51878;SHT31;37911;51.526;11.536;2023-02-18T03:49:58;7.88;73.49
51878;SHT31;37911;51.526;11.536;2023-02-18T03:53:02;7.92;73.76
51878;SHT31;37911;51.526;11.536;2023-02-18T03:56:08;7.91;73.80
51878;SHT31;37911;51.526;11.536;2023-02-18T03:59:12;7.93;73.99
51878;SHT31;37911;51.526;11.536;2023-02-18T04:02:16;8.02;73.98
51878;SHT31;37911;51.526;11.536;2023-02-18T04:05:19;7.96;74.56
51878;SHT31;37911;51.526;11.536;2023-02-18T04:08:23;7.95;75.26
51878;SHT31;37911;51.526;11.536;2023-02-18T04:11:29;7.91;75.59
51878;SHT31;37911;51.526;11.536;2023-02-18T04:14:34;7.91;75.68
51878;SHT31;37911;51.526;11.536;2023-02-18T04:17:37;7.91;75.94
51878;SHT31;37911;51.526;11.536;2023-02-18T04:20:41;7.91;76.37
51878;SHT31;37911;51.526;11.536;2023-02-18T04:23:45;7.95;76.59
51878;SHT31;37911;51.526;11.536;2023-02-18T04:26:52;7.91;76.98
51878;SHT31;37911;51.526;11.536;2023-02-18T04:29:55;7.91;77.37
51878;SHT31;37911;51.526;11.536;2023-02-18T04:32:59;7.92;77.58
51878;SHT31;37911;51.526;11.536;2023-02-18T04:36:02;7.89;77.86
51878;SHT31;37911;51.526;11.536;2023-02-18T04:39:06;7.92;77.98
51878;SHT31;37911;51.526;11.536;2023-02-18T04:42:12;7.96;78.08
51878;SHT31;37911;51.526;11.536;2023-02-18T04:45:16;7.95;78.34
51878;SHT31;37911;51.526;11.536;2023-02-18T04:48:19;8.02;78.38
51878;SHT31;37911;51.526;11.536;2023-02-18T04:51:23;8.01;78.62
51878;SHT31;37911;51.526;11.536;2023-02-18T04:54:27;8.05;78.62
51878;SHT31;37911;51.526;11.536;2023-02-18T04:57:33;8.06;78.88
51878;SHT31;37911;51.526;11.536;2023-02-18T05:00:36;8.07;78.91
51878;SHT31;37911;51.526;11.536;2023-02-18T05:03:40;8.02;78.93
51878;SHT31;37911;51.526;11.536;2023-02-18T05:06:45;7.99;79.10
51878;SHT31;37911;51.526;11.536;2023-02-18T05:09:48;7.96;78.99
51878;SHT31;37911;51.526;11.536;2023-02-18T05:12:55;7.93;79.15
51878;SHT31;37911;51.526;11.536;2023-02-18T05:15:58;7.89;79.37
51878;SHT31;37911;51.526;11.536;2023-02-18T05:19:02;7.86;79.59
51878;SHT31;37911;51.526;11.536;2023-02-18T05:22:06;7.85;79.85
51878;SHT31;37911;51.526;11.536;2023-02-18T05:25:09;7.83;80.08
51878;SHT31;37911;51.526;11.536;2023-02-18T05:28:16;7.83;80.70
51878;SHT31;37911;51.526;11.536;2023-02-18T05:31:19;7.81;81.33
51878;SHT31;37911;51.526;11.536;2023-02-18T05:34:23;7.83;81.97
51878;SHT31;37911;51.526;11.536;2023-02-18T05:37:27;7.79;82.29
51878;SHT31;37911;51.526;11.536;2023-02-18T05:40:31;7.81;82.75
51878;SHT31;37911;51.526;11.536;2023-02-18T05:43:37;7.78;83.74
51878;SHT31;37911;51.526;11.536;2023-02-18T05:46:52;7.75;84.37
51878;SHT31;37911;51.526;11.536;2023-02-18T05:49:56;7.74;84.73
51878;SHT31;37911;51.526;11.536;2023-02-18T05:53:00;7.72;84.92
51878;SHT31;37911;51.526;11.536;2023-02-18T05:56:04;7.68;85.27
51878;SHT31;37911;51.526;11.536;2023-02-18T05:59:11;7.68;85.62
51878;SHT31;37911;51.526;11.536;2023-02-18T06:02:15;7.68;85.62
51878;SHT31;37911;51.526;11.536;2023-02-18T06:05:18;7.68;85.75
51878;SHT31;37911;51.526;11.536;2023-02-18T06:08:22;7.67;86.01
51878;SHT31;37911;51.526;11.536;2023-02-18T06:11:26;7.67;86.14
51878;SHT31;37911;51.526;11.536;2023-02-18T06:14:32;7.67;86.24
51878;SHT31;37911;51.526;11.536;2023-02-18T06:17:36;7.65;86.66
51878;SHT31;37911;51.526;11.536;2023-02-18T06:20:39;7.64;86.79
51878;SHT31;37911;51.526;11.536;2023-02-18T06:23:43;7.65;86.85
51878;SHT31;37911;51.526;11.536;2023-02-18T06:26:47;7.65;87.05
51878;SHT31;37911;51.526;11.536;2023-02-18T06:29:53;7.68;87.29
51878;SHT31;37911;51.526;11.536;2023-02-18T06:32:56;7.64;87.88
51878;SHT31;37911;51.526;11.536;2023-02-18T06:36:05;7.65;87.71
51878;SHT31;37911;51.526;11.536;2023-02-18T06:39:11;7.68;87.95
51878;SHT31;37911;51.526;11.536;2023-02-18T06:42:14;7.69;88.02
51878;SHT31;37911;51.526;11.536;2023-02-18T06:45:20;7.69;88.03
51878;SHT31;37911;51.526;11.536;2023-02-18T06:48:24;7.69;88.08
51878;SHT31;37911;51.526;11.536;2023-02-18T06:51:28;7.68;88.18
51878;SHT31;37911;51.526;11.536;2023-02-18T06:54:32;7.68;88.20
51878;SHT31;37911;51.526;11.536;2023-02-18T06:57:36;7.68;88.22
51878;SHT31;37911;51.526;11.536;2023-02-18T07:00:42;7.69;88.23
51878;SHT31;37911;51.526;11.536;2023-02-18T07:03:46;7.72;88.36
51878;SHT31;37911;51.526;11.536;2023-02-18T07:06:50;7.77;88.43
51878;SHT31;37911;51.526;11.536;2023-02-18T07:09:53;7.79;88.77
51878;SHT31;37911;51.526;11.536;2023-02-18T07:12:57;7.86;89.05
51878;SHT31;37911;51.526;11.536;2023-02-18T07:16:04;7.89;89.27
51878;SHT31;37911;51.526;11.536;2023-02-18T07:19:07;7.98;89.60
51878;SHT31;37911;51.526;11.536;2023-02-18T07:22:11;8.03;89.67
51878;SHT31;37911;51.526;11.536;2023-02-18T07:25:15;8.12;89.99
51878;SHT31;37911;51.526;11.536;2023-02-18T07:28:18;8.32;90.20
51878;SHT31;37911;51.526;11.536;2023-02-18T07:31:25;8.34;90.19
51878;SHT31;37911;51.526;11.536;2023-02-18T07:34:28;8.39;90.18
51878;SHT31;37911;51.526;11.536;2023-02-18T07:37:32;8.44;90.15
51878;SHT31;37911;51.526;11.536;2023-02-18T07:40:36;8.52;89.98
51878;SHT31;37911;51.526;11.536;2023-02-18T07:43:40;8.64;89.69
51878;SHT31;37911;51.526;11.536;2023-02-18T07:46:46;8.67;89.57
51878;SHT31;37911;51.526;11.536;2023-02-18T07:49:49;8.76;89.43
51878;SHT31;37911;51.526;11.536;2023-02-18T07:52:53;8.81;89.46
51878;SHT31;37911;51.526;11.536;2023-02-18T07:55:57;8.89;89.11
51878;SHT31;37911;51.526;11.536;2023-02-18T07:59:00;8.94;88.98
51878;SHT31;37911;51.526;11.536;2023-02-18T08:02:10;9.04;88.89
51878;SHT31;37911;51.526;11.536;2023-02-18T08:05:17;9.17;88.54
51878;SHT31;37911;51.526;11.536;2023-02-18T08:08:22;9.24;88.10
51878;SHT31;37911;51.526;11.536;2023-02-18T08:11:26;9.29;87.87
51878;SHT31;37911;51.526;11.536;2023-02-18T08:14:30;9.35;87.68
51878;SHT31;37911;51.526;11.536;2023-02-18T08:17:36;9.41;87.55
51878;SHT31;37911;51.526;11.536;2023-02-18T08:20:40;9.53;87.46
51878;SHT31;37911;51.526;11.536;2023-02-18T08:23:43;9.59;87.42
51878;SHT31;37911;51.526;11.536;2023-02-18T08:26:47;9.65;87.06
51878;SHT31;37911;51.526;11.536;2023-02-18T08:29:51;9.66;86.81
51878;SHT31;37911;51.526;11.536;2023-02-18T08:32:58;9.76;86.73
51878;SHT31;37911;51.526;11.536;2023-02-18T08:36:06;9.80;86.79
51878;SHT31;37911;51.526;11.536;2023-02-18T08:39:11;9.94;86.60
51878;SHT31;37911;51.526;11.536;2023-02-18T08:42:14;9.99;86.28
51878;SHT31;37911;51.526;11.536;2023-02-18T08:45:18;10.03;86.12
51878;SHT31;37911;51.526;11.536;2023-02-18T08:48:26;10.16;86.35
51878;SHT31;37911;51.526;11.536;2023-02-18T08:51:30;10.13;86.44
51878;SHT31;37911;51.526;11.536;2023-02-18T08:54:33;10.07;86.73
51878;SHT31;37911;51.526;11.536;2023-02-18T08:57:37;10.13;86.98
51878;SHT31;37911;51.526;11.536;2023-02-18T09:00:42;10.20;87.10
51878;SHT31;37911;51.526;11.536;2023-02-18T09:03:48;10.32;86.71
51878;SHT31;37911;51.526;11.536;2023-02-18T09:06:52;10.47;86.65
51878;SHT31;37911;51.526;11.536;2023-02-18T09:09:56;10.54;86.35
51878;SHT31;37911;51.526;11.536;2023-02-18T09:12:59;10.63;85.77
51878;SHT31;37911;51.526;11.536;2023-02-18T09:16:05;10.75;85.47
51878;SHT31;37911;51.526;11.536;2023-02-18T09:19:12;10.69;85.45
51878;SHT31;37911;51.526;11.536;2023-02-18T09:22:16;10.75;85.39
51878;SHT31;37911;51.526;11.536;2023-02-18T09:25:20;10.69;85.57
51878;SHT31;37911;51.526;11.536;2023-02-18T09:28:24;10.72;85.59
51878;SHT31;37911;51.526;11.536;2023-02-18T09:31:28;10.77;85.26
51878;SHT31;37911;51.526;11.536;2023-02-18T09:34:35;10.82;85.34
51878;SHT31;37911;51.526;11.536;2023-02-18T09:37:39;10.89;85.27
51878;SHT31;37911;51.526;11.536;2023-02-18T09:40:44;10.88;85.11
51878;SHT31;37911;51.526;11.536;2023-02-18T09:43:50;10.91;84.46
51878;SHT31;37911;51.526;11.536;2023-02-18T09:46:58;10.95;83.98
51878;SHT31;37911;51.526;11.536;2023-02-18T09:50:11;10.94;83.77
51878;SHT31;37911;51.526;11.536;2023-02-18T09:53:16;10.99;83.68
51878;SHT31;37911;51.526;11.536;2023-02-18T09:56:26;11.02;83.39
51878;SHT31;37911;51.526;11.536;2023-02-18T09:59:30;11.19;82.92
51878;SHT31;37911;51.526;11.536;2023-02-18T10:02:39;11.36;82.43
51878;SHT31;37911;51.526;11.536;2023-02-18T10:05:54;11.39;81.57
51878;SHT31;37911;51.526;11.536;2023-02-18T10:09:04;11.38;82.10
51878;SHT31;37911;51.526;11.536;2023-02-18T10:12:13;11.29;82.03
51878;SHT31;37911;51.526;11.536;2023-02-18T10:15:21;11.29;82.79
51878;SHT31;37911;51.526;11.536;2023-02-18T10:18:27;11.23;83.07
51878;SHT31;37911;51.526;11.536;2023-02-18T10:21:34;11.25;82.43
51878;SHT31;37911;51.526;11.536;2023-02-18T10:24:39;11.42;82.18
51878;SHT31;37911;51.526;11.536;2023-02-18T10:27:44;11.35;82.40
51878;SHT31;37911;51.526;11.536;2023-02-18T10:30:53;11.26;82.32
51878;SHT31;37911;51.526;11.536;2023-02-18T10:33:58;11.32;81.98
51878;SHT31;37911;51.526;11.536;2023-02-18T10:37:15;11.44;81.97
51878;SHT31;37911;51.526;11.536;2023-02-18T10:40:28;11.42;82.00
51878;SHT31;37911;51.526;11.536;2023-02-18T10:43:40;11.35;81.51
51878;SHT31;37911;51.526;11.536;2023-02-18T10:46:53;11.26;81.41
51878;SHT31;37911;51.526;11.536;2023-02-18T10:50:08;11.23;81.39
51878;SHT31;37911;51.526;11.536;2023-02-18T10:53:20;11.29;80.41
51878;SHT31;37911;51.526;11.536;2023-02-18T10:56:38;11.26;80.35
51878;SHT31;37911;51.526;11.536;2023-02-18T10:59:53;11.30;80.30
51878;SHT31;37911;51.526;11.536;2023-02-18T11:03:08;11.32;80.02
51878;SHT31;37911;51.526;11.536;2023-02-18T11:06:20;11.35;79.83
51878;SHT31;37911;51.526;11.536;2023-02-18T11:09:30;11.43;78.83
51878;SHT31;37911;51.526;11.536;2023-02-18T11:12:43;11.40;79.01
51878;SHT31;37911;51.526;11.536;2023-02-18T11:15:59;11.42;78.55
51878;SHT31;37911;51.526;11.536;2023-02-18T11:19:03;11.38;78.56
51878;SHT31;37911;51.526;11.536;2023-02-18T11:22:14;11.43;78.75
51878;SHT31;37911;51.526;11.536;2023-02-18T11:25:23;11.39;78.32
51878;SHT31;37911;51.526;11.536;2023-02-18T11:28:42;11.43;78.83
51878;SHT31;37911;51.526;11.536;2023-02-18T11:31:48;11.47;78.34
51878;SHT31;37911;51.526;11.536;2023-02-18T11:34:52;11.43;78.30
51878;SHT31;37911;51.526;11.536;2023-02-18T11:37:57;11.42;78.14
51878;SHT31;37911;51.526;11.536;2023-02-18T11:41:06;11.47;78.05
51878;SHT31;37911;51.526;11.536;2023-02-18T11:44:19;11.49;78.19
51878;SHT31;37911;51.526;11.536;2023-02-18T11:47:26;11.47;78.50
51878;SHT31;37911;51.526;11.536;2023-02-18T11:50:31;11.43;78.35
51878;SHT31;37911;51.526;11.536;2023-02-18T11:53:36;11.42;78.79
51878;SHT31;37911;51.526;11.536;2023-02-18T11:56:54;11.36;78.42
51878;SHT31;37911;51.526;11.536;2023-02-18T11:59:59;11.38;78.63
51878;SHT31;37911;51.526;11.536;2023-02-18T12:03:16;11.42;78.49
51878;SHT31;37911;51.526;11.536;2023-02-18T12:06:27;11.42;79.05
51878;SHT31;37911;51.526;11.536;2023-02-18T12:09:35;11.40;78.82
51878;SHT31;37911;51.526;11.536;2023-02-18T12:12:46;11.44;78.04
51878;SHT31;37911;51.526;11.536;2023-02-18T12:16:01;11.43;77.60
51878;SHT31;37911;51.526;11.536;2023-02-18T12:19:21;11.50;77.23
51878;SHT31;37911;51.526;11.536;2023-02-18T12:22:38;11.63;75.02
51878;SHT31;37911;51.526;11.536;2023-02-18T12:25:48;11.70;74.64
51878;SHT31;37911;51.526;11.536;2023-02-18T12:29:16;11.74;74.66
51878;SHT31;37911;51.526;11.536;2023-02-18T12:32:32;11.73;74.65
51878;SHT31;37911;51.526;11.536;2023-02-18T12:35:53;11.69;75.17
51878;SHT31;37911;51.526;11.536;2023-02-18T12:39:10;11.84;74.54
51878;SHT31;37911;51.526;11.536;2023-02-18T12:42:33;12.28;71.99
51878;SHT31;37911;51.526;11.536;2023-02-18T12:46:09;12.31;70.73
51878;SHT31;37911;51.526;11.536;2023-02-18T12:49:41;12.33;71.16
51878;SHT31;37911;51.526;11.536;2023-02-18T12:52:56;12.23;71.52
51878;SHT31;37911;51.526;11.536;2023-02-18T12:56:23;12.07;72.16
51878;SHT31;37911;51.526;11.536;2023-02-18T12:59:48;12.08;72.25
51878;SHT31;37911;51.526;11.536;2023-02-18T13:07:04;12.20;71.95
51878;SHT31;37911;51.526;11.536;2023-02-18T13:13:53;11.97;72.05
51878;SHT31;37911;51.526;11.536;2023-02-18T13:17:00;11.67;72.24
51878;SHT31;37911;51.526;11.536;2023-02-18T13:20:13;11.79;72.62
51878;SHT31;37911;51.526;11.536;2023-02-18T13:23:21;11.76;72.48
51878;SHT31;37911;51.526;11.536;2023-02-18T13:26:27;11.76;73.14
51878;SHT31;37911;51.526;11.536;2023-02-18T13:29:34;11.60;73.62
51878;SHT31;37911;51.526;11.536;2023-02-18T13:32:47;11.49;74.56
51878;SHT31;37911;51.526;11.536;2023-02-18T13:36:03;11.39;74.82
51878;SHT31;37911;51.526;11.536;2023-02-18T13:39:09;11.42;74.28
51878;SHT31;37911;51.526;11.536;2023-02-18T13:42:33;11.30;74.53
51878;SHT31;37911;51.526;11.536;2023-02-18T13:45:38;11.33;74.35
51878;SHT31;37911;51.526;11.536;2023-02-18T13:48:44;11.44;74.48
51878;SHT31;37911;51.526;11.536;2023-02-18T13:51:52;11.33;74.73
51878;SHT31;37911;51.526;11.536;2023-02-18T13:54:57;11.12;74.94
51878;SHT31;37911;51.526;11.536;2023-02-18T13:58:01;10.92;76.01
51878;SHT31;37911;51.526;11.536;2023-02-18T14:01:11;10.84;76.22
51878;SHT31;37911;51.526;11.536;2023-02-18T14:08:08;10.69;78.39
51878;SHT31;37911;51.526;11.536;2023-02-18T14:11:31;10.63;78.35
51878;SHT31;37911;51.526;11.536;2023-02-18T14:14:39;10.45;78.96
51878;SHT31;37911;51.526;11.536;2023-02-18T14:17:46;10.44;79.20
51878;SHT31;37911;51.526;11.536;2023-02-18T14:20:50;10.41;79.38
51878;SHT31;37911;51.526;11.536;2023-02-18T14:24:01;10.30;79.46
51878;SHT31;37911;51.526;11.536;2023-02-18T14:27:14;10.24;80.07
51878;SHT31;37911;51.526;11.536;2023-02-18T14:30:24;10.23;80.18
51878;SHT31;37911;51.526;11.536;2023-02-18T14:33:29;10.27;80.24
51878;SHT31;37911;51.526;11.536;2023-02-18T14:36:38;10.33;80.31
51878;SHT31;37911;51.526;11.536;2023-02-18T14:39:52;10.29;80.16
51878;SHT31;37911;51.526;11.536;2023-02-18T14:43:06;10.25;80.14
51878;SHT31;37911;51.526;11.536;2023-02-18T14:46:23;10.18;80.67
51878;SHT31;37911;51.526;11.536;2023-02-18T14:49:36;10.16;80.54
51878;SHT31;37911;51.526;11.536;2023-02-18T14:52:42;10.09;80.85
51878;SHT31;37911;51.526;11.536;2023-02-18T14:55:53;10.03;81.54
51878;SHT31;37911;51.526;11.536;2023-02-18T14:58:58;10.00;81.53
51878;SHT31;37911;51.526;11.536;2023-02-18T15:02:15;9.93;81.43
51878;SHT31;37911;51.526;11.536;2023-02-18T15:05:23;9.92;81.60
51878;SHT31;37911;51.526;11.536;2023-02-18T15:08:35;9.90;81.65
51878;SHT31;37911;51.526;11.536;2023-02-18T15:11:44;9.96;81.47
51878;SHT31;37911;51.526;11.536;2023-02-18T15:14:50;9.89;81.37
51878;SHT31;37911;51.526;11.536;2023-02-18T15:17:55;9.83;81.23
51878;SHT31;37911;51.526;11.536;2023-02-18T15:21:06;9.87;81.06
51878;SHT31;37911;51.526;11.536;2023-02-18T15:24:23;9.83;81.18
51878;SHT31;37911;51.526;11.536;2023-02-18T15:27:31;9.86;81.14
51878;SHT31;37911;51.526;11.536;2023-02-18T15:30:36;9.87;81.01
51878;SHT31;37911;51.526;11.536;2023-02-18T15:33:42;9.90;80.94
51878;SHT31;37911;51.526;11.536;2023-02-18T15:36:48;9.94;81.01
51878;SHT31;37911;51.526;11.536;2023-02-18T15:39:52;9.94;81.15
51878;SHT31;37911;51.526;11.536;2023-02-18T15:43:01;9.92;81.15
51878;SHT31;37911;51.526;11.536;2023-02-18T15:46:11;9.90;81.52
51878;SHT31;37911;51.526;11.536;2023-02-18T15:49:19;9.87;81.90
51878;SHT31;37911;51.526;11.536;2023-02-18T15:52:26;9.85;82.07
51878;SHT31;37911;51.526;11.536;2023-02-18T15:55:32;9.82;81.86
51878;SHT31;37911;51.526;11.536;2023-02-18T15:58:39;9.82;81.65
51878;SHT31;37911;51.526;11.536;2023-02-18T16:01:46;9.85;81.23
51878;SHT31;37911;51.526;11.536;2023-02-18T16:04:56;9.83;80.74
51878;SHT31;37911;51.526;11.536;2023-02-18T16:08:05;9.86;80.46
51878;SHT31;37911;51.526;11.536;2023-02-18T16:11:11;9.89;80.40
51878;SHT31;37911;51.526;11.536;2023-02-18T16:14:27;9.87;80.29
51878;SHT31;37911;51.526;11.536;2023-02-18T16:17:31;9.92;79.76
51878;SHT31;37911;51.526;11.536;2023-02-18T16:20:37;9.94;79.41
51878;SHT31;37911;51.526;11.536;2023-02-18T16:23:43;9.89;79.64
51878;SHT31;37911;51.526;11.536;2023-02-18T16:26:49;9.92;79.45
51878;SHT31;37911;51.526;11.536;2023-02-18T16:29:58;9.93;79.04
51878;SHT31;37911;51.526;11.536;2023-02-18T16:33:03;9.89;79.26
51878;SHT31;37911;51.526;11.536;2023-02-18T16:36:10;9.93;79.06
51878;SHT31;37911;51.526;11.536;2023-02-18T16:39:14;9.85;79.06
51878;SHT31;37911;51.526;11.536;2023-02-18T16:42:18;9.89;78.75
51878;SHT31;37911;51.526;11.536;2023-02-18T16:45:32;9.80;78.66
51878;SHT31;37911;51.526;11.536;2023-02-18T16:48:37;9.80;78.57
51878;SHT31;37911;51.526;11.536;2023-02-18T16:51:42;9.82;78.33
51878;SHT31;37911;51.526;11.536;2023-02-18T16:54:46;9.79;78.11
51878;SHT31;37911;51.526;11.536;2023-02-18T16:57:50;9.80;78.06
51878;SHT31;37911;51.526;11.536;2023-02-18T17:00:56;9.76;78.26
51878;SHT31;37911;51.526;11.536;2023-02-18T17:04:01;9.79;78.15
51878;SHT31;37911;51.526;11.536;2023-02-18T17:07:08;9.79;78.14
51878;SHT31;37911;51.526;11.536;2023-02-18T17:10:12;9.76;78.14
51878;SHT31;37911;51.526;11.536;2023-02-18T17:13:18;9.79;78.14
51878;SHT31;37911;51.526;11.536;2023-02-18T17:16:26;9.78;78.09
51878;SHT31;37911;51.526;11.536;2023-02-18T17:19:43;9.78;78.06
51878;SHT31;37911;51.526;11.536;2023-02-18T17:22:46;9.79;78.06
51878;SHT31;37911;51.526;11.536;2023-02-18T17:25:51;9.76;78.27
51878;SHT31;37911;51.526;11.536;2023-02-18T17:28:56;9.72;78.61
51878;SHT31;37911;51.526;11.536;2023-02-18T17:32:04;9.70;78.72
51878;SHT31;37911;51.526;11.536;2023-02-18T17:35:14;9.69;78.86
51878;SHT31;37911;51.526;11.536;2023-02-18T17:38:29;9.65;79.03
51878;SHT31;37911;51.526;11.536;2023-02-18T17:41:34;9.60;79.31
51878;SHT31;37911;51.526;11.536;2023-02-18T17:44:38;9.65;79.24
51878;SHT31;37911;51.526;11.536;2023-02-18T17:47:46;9.70;79.03
51878;SHT31;37911;51.526;11.536;2023-02-18T17:50:51;9.72;79.18
51878;SHT31;37911;51.526;11.536;2023-02-18T17:53:55;9.75;79.15
51878;SHT31;37911;51.526;11.536;2023-02-18T17:57:00;9.75;79.45
51878;SHT31;37911;51.526;11.536;2023-02-18T18:00:04;9.76;79.56
51878;SHT31;37911;51.526;11.536;2023-02-18T18:03:12;9.76;79.56
51878;SHT31;37911;51.526;11.536;2023-02-18T18:18:51;9.82;78.42
51878;SHT31;37911;51.526;11.536;2023-02-18T18:21:55;9.82;78.57
51878;SHT31;37911;51.526;11.536;2023-02-18T18:24:58;9.90;77.86
51878;SHT31;37911;51.526;11.536;2023-02-18T18:28:04;9.90;77.70
51878;SHT31;37911;51.526;11.536;2023-02-18T18:31:11;9.93;77.83
51878;SHT31;37911;51.526;11.536;2023-02-18T18:34:18;9.90;77.95
51878;SHT31;37911;51.526;11.536;2023-02-18T18:37:23;9.87;77.78
51878;SHT31;37911;51.526;11.536;2023-02-18T18:40:28;9.87;77.56
51878;SHT31;37911;51.526;11.536;2023-02-18T18:43:32;9.87;77.38
51878;SHT31;37911;51.526;11.536;2023-02-18T18:46:38;9.86;77.38
51878;SHT31;37911;51.526;11.536;2023-02-18T18:49:44;9.82;77.63
51878;SHT31;37911;51.526;11.536;2023-02-18T18:52:48;9.80;77.68
51878;SHT31;37911;51.526;11.536;2023-02-18T18:55:54;9.89;78.13
51878;SHT31;37911;51.526;11.536;2023-02-18T18:58:58;9.86;78.17
51878;SHT31;37911;51.526;11.536;2023-02-18T19:02:02;9.86;78.15
51878;SHT31;37911;51.526;11.536;2023-02-18T19:08:28;9.82;79.50
51878;SHT31;37911;51.526;11.536;2023-02-18T19:11:33;9.76;80.29
51878;SHT31;37911;51.526;11.536;2023-02-18T19:14:38;9.78;80.23
51878;SHT31;37911;51.526;11.536;2023-02-18T19:17:48;9.68;80.50
51878;SHT31;37911;51.526;11.536;2023-02-18T19:21:10;9.58;80.52
51878;SHT31;37911;51.526;11.536;2023-02-18T19:24:18;9.58;80.73
51878;SHT31;37911;51.526;11.536;2023-02-18T19:27:23;9.62;80.69
51878;SHT31;37911;51.526;11.536;2023-02-18T19:30:33;9.56;81.24
51878;SHT31;37911;51.526;11.536;2023-02-18T19:33:42;9.52;81.76
51878;SHT31;37911;51.526;11.536;2023-02-18T19:36:49;9.46;82.20
51878;SHT31;37911;51.526;11.536;2023-02-18T19:39:53;9.45;82.29
51878;SHT31;37911;51.526;11.536;2023-02-18T19:42:59;9.48;82.47
51878;SHT31;37911;51.526;11.536;2023-02-18T19:46:07;9.45;82.41
51878;SHT31;37911;51.526;11.536;2023-02-18T19:49:12;9.45;82.41
51878;SHT31;37911;51.526;11.536;2023-02-18T19:52:20;9.42;82.36
51878;SHT31;37911;51.526;11.536;2023-02-18T19:55:23;9.43;82.33
51878;SHT31;37911;51.526;11.536;2023-02-18T19:58:28;9.48;82.23
51878;SHT31;37911;51.526;11.536;2023-02-18T20:01:31;9.48;82.20
51878;SHT31;37911;51.526;11.536;2023-02-18T20:04:35;9.48;82.35
51878;SHT31;37911;51.526;11.536;2023-02-18T20:07:42;9.45;82.17
51878;SHT31;37911;51.526;11.536;2023-02-18T20:10:54;9.43;82.13
51878;SHT31;37911;51.526;11.536;2023-02-18T20:14:43;9.43;81.80